Normal, IL

11:46 AM CDT on April 25, 2015 (GMT -0500)
Across from IWU | | Change Station
CLOSE
Current Station
Personal Weather Station
Location: Bloomington, IL
Elevation: 810 ft
Nearby Weather Stations

Elev 810 ft 40.49 °N, 88.99 °W | Updated 2 minutes ago

Rain
Rain
47.2 °F
Feels Like 44 °F
N
7.0
Wind Variable Wind from NNE
Gusts 19.0 mph

Today
High -- | Low -- °F
--% Chance of Precip.
Yesterday
High -- | Low -- °F
Precip. -- in
6:03 AM 7:45 PM
Waxing Crescent, 47% visible
Pressure 29.63 in
Visibility 2.5 miles
Clouds Mostly Cloudy 300 ft
Overcast 1900 ft
Windchill 44 °F
Dew Point 46 °F
Humidity 96%
Rainfall 0.87 in
Snow Depth Not available.
UV 3 out of 12
Pollen 10.00 out of 12
Air Quality Not available.
Flu Activity Regional
SPECI KBMI 251633Z 06020KT 2 1/2SM -RA BR BKN003 OVC019 08/08 A2963 RMK AO2 CIG 001V011 TSE32 P0013 WSHFT 1551

More Conditions Fewer Conditions

Pressure 29.63 in
Visibility 2.5 miles
Clouds Mostly Cloudy 300 ft
Overcast 1900 ft
Windchill 44 °F
Dew Point 46 °F
Humidity 96%
Rainfall 0.87 in
Snow Depth Not available.
UV 3 out of 12
Pollen 10.00 out of 12
Air Quality Not available.
Flu Activity Regional
SPECI KBMI 251633Z 06020KT 2 1/2SM -RA BR BKN003 OVC019 08/08 A2963 RMK AO2 CIG 001V011 TSE32 P0013 WSHFT 1551

More Conditions Fewer Conditions

10-Day Weather Forecast

Almanac

Astronomy

Apr. 25, 2015 Rise Set
Actual Time
Civil Twilight
Nautical Twilight
Astronomical Twilight
Moon
Length of Visible Light
Length of Day
Tomorrow will be .
, % of the Moon is Illuminated

Today's Extremes

State Highs State Lows

Community

WunderPhotos

Upload Photos

1,816,737 photos uploaded!

WunderBlogs® & News

Nearby

Air Quality

  Air Quality AQ Index Pollutant
Not available.

Snow Depth

Station Depth Elevation

Earthquake Activity

City Distance Mag. Time & Date
Minimum magnitude displayed is 2.5.

Coastal Water Temperatures

Place Temperature

Stations

Nearby Weather Stations

Station Location Temp. Windchill Dew Point Humidity Wind Precip. Elev Updated Type